Time;durP1;ratioP1;P1;durP2;ratioP2;P2;SDS_P1;SDS_P2;PMS_P1;PMS_P2;Temp;Humidity;BMP_temperature;BMP_pressure;BME280_temperature;BME280_humidity;BME280_pressure;Samples;Min_cycle;Max_cycle;Signal;HPM_P1;HPM_P2
2021/10/13 00:01:17;;;;;;;2.83;2.63;;;8.50;99.90;;;;;;5075124;28;20229;-92
2021/10/13 00:03:44;;;;;;;2.70;2.50;;;8.50;99.90;;;;;;5078400;28;20977;-93
2021/10/13 00:06:11;;;;;;;2.90;2.70;;;8.50;99.90;;;;;;5075632;28;20229;-90
2021/10/13 00:08:38;;;;;;;2.53;2.33;;;8.50;99.90;;;;;;5072956;28;20222;-90
2021/10/13 00:11:06;;;;;;;2.83;2.63;;;8.40;99.90;;;;;;5071252;28;20225;-86
2021/10/13 00:13:35;;;;;;;2.45;2.25;;;8.50;99.90;;;;;;5093455;28;20205;-92
2021/10/13 00:16:02;;;;;;;2.80;2.60;;;8.50;99.90;;;;;;5074730;28;20218;-91
2021/10/13 00:18:29;;;;;;;2.67;2.47;;;8.50;99.90;;;;;;5070235;28;20249;-88
2021/10/13 00:20:56;;;;;;;2.20;2.10;;;8.40;99.90;;;;;;5069156;28;20590;-89
2021/10/13 00:23:23;;;;;;;2.67;2.47;;;8.50;99.90;;;;;;5077690;28;20213;-92
2021/10/13 00:25:50;;;;;;;2.55;2.35;;;8.40;99.90;;;;;;5067644;28;20226;-89
2021/10/13 00:28:18;;;;;;;2.80;2.60;;;8.40;99.90;;;;;;5050119;28;20249;-88
2021/10/13 00:30:46;;;;;;;2.80;2.33;;;8.40;99.90;;;;;;5057502;28;21181;-91
2021/10/13 00:33:13;;;;;;;2.83;2.63;;;8.30;99.90;;;;;;5067715;28;20272;-91
2021/10/13 00:35:40;;;;;;;2.60;2.40;;;8.30;99.90;;;;;;5067948;28;20218;-91
2021/10/13 00:38:07;;;;;;;2.40;2.30;;;8.30;99.90;;;;;;5072429;28;20630;-92
2021/10/13 00:40:34;;;;;;;2.50;2.30;;;8.20;99.90;;;;;;5074012;28;20626;-90
2021/10/13 00:43:01;;;;;;;3.83;3.05;;;8.30;99.90;;;;;;5075015;28;20238;-92
2021/10/13 00:45:29;;;;;;;2.30;2.20;;;8.30;99.90;;;;;;5071044;28;20218;-92
2021/10/13 00:47:57;;;;;;;2.40;2.20;;;8.30;99.90;;;;;;5077117;28;20226;-91
2021/10/13 00:50:24;;;;;;;2.70;2.53;;;8.30;99.90;;;;;;5078251;28;20218;-89
2021/10/13 00:52:51;;;;;;;2.30;2.20;;;8.30;99.90;;;;;;5077725;28;20218;-91
2021/10/13 00:55:19;;;;;;;2.60;2.40;;;8.30;99.90;;;;;;5071796;28;20242;-91
2021/10/13 00:57:49;;;;;;;2.72;2.53;;;8.30;99.90;;;;;;5072378;28;20222;-92
2021/10/13 01:00:18;;;;;;;2.70;2.50;;;8.30;99.90;;;;;;5068373;28;20238;-91
2021/10/13 01:02:56;;;;;;;2.22;2.08;;;8.30;99.90;;;;;;5072023;28;21291;-91
2021/10/13 01:05:51;;;;;;;2.30;2.20;;;8.30;99.90;;;;;;5075306;28;20216;-93
2021/10/13 01:08:29;;;;;;;2.20;2.10;;;8.30;99.90;;;;;;5062145;28;20222;-91
2021/10/13 01:11:08;;;;;;;2.78;2.58;;;8.30;99.90;;;;;;5064802;28;20221;-91
2021/10/13 01:13:44;;;;;;;2.20;2.10;;;8.30;99.90;;;;;;5069686;28;20267;-92
2021/10/13 01:16:18;;;;;;;2.53;2.42;;;8.30;99.90;;;;;;5069985;28;20731;-93
2021/10/13 01:18:51;;;;;;;2.30;2.10;;;8.30;99.90;;;;;;5072824;28;20245;-92
2021/10/13 01:21:42;;;;;;;3.15;2.40;;;8.20;99.90;;;;;;5072439;28;20229;-91
2021/10/13 01:24:21;;;;;;;2.70;2.50;;;8.20;99.90;;;;;;5071693;28;20229;-90
2021/10/13 01:26:56;;;;;;;2.85;2.65;;;8.20;99.90;;;;;;5066116;28;20222;-90
2021/10/13 01:29:25;;;;;;;2.28;2.17;;;8.20;99.90;;;;;;5073373;28;20229;-90
2021/10/13 01:31:59;;;;;;;2.20;2.10;;;8.20;99.90;;;;;;5068817;28;20226;-92
2021/10/13 01:34:29;;;;;;;1.92;1.83;;;8.20;99.90;;;;;;5066760;28;20226;-89
2021/10/13 01:37:01;;;;;;;2.53;2.40;;;8.20;99.90;;;;;;5069747;28;20222;-92
2021/10/13 01:39:30;;;;;;;2.38;2.28;;;8.20;99.90;;;;;;5070044;28;20844;-93
2021/10/13 01:41:59;;;;;;;2.65;2.45;;;8.20;99.90;;;;;;5068516;28;20222;-91
2021/10/13 01:44:30;;;;;;;2.28;2.17;;;8.20;99.90;;;;;;5079602;28;20227;-91
2021/10/13 01:46:58;;;;;;;2.50;2.30;;;8.10;99.90;;;;;;5067801;28;20226;-93
2021/10/13 01:49:25;;;;;;;2.42;2.30;;;8.10;99.90;;;;;;5070740;28;20582;-92
2021/10/13 01:51:54;;;;;;;1.90;1.80;;;8.10;99.90;;;;;;5068192;28;20290;-90
2021/10/13 01:54:23;;;;;;;2.33;2.20;;;8.10;99.90;;;;;;5072206;28;21033;-92
2021/10/13 01:56:50;;;;;;;2.15;2.00;;;8.10;99.90;;;;;;5074451;28;20234;-93
2021/10/13 01:59:22;;;;;;;2.13;2.00;;;8.20;99.90;;;;;;5070210;28;20226;-91
2021/10/13 02:01:52;;;;;;;2.40;2.30;;;8.10;99.90;;;;;;5071311;28;20238;-93
2021/10/13 02:04:20;;;;;;;4.32;2.38;;;8.10;99.90;;;;;;5073658;28;20221;-92
2021/10/13 02:06:49;;;;;;;2.35;2.25;;;8.10;99.90;;;;;;5075694;28;20247;-90
2021/10/13 02:09:19;;;;;;;2.30;2.10;;;8.10;99.90;;;;;;5076429;28;20247;-92
2021/10/13 02:11:46;;;;;;;2.10;2.00;;;8.20;99.90;;;;;;5077955;28;20631;-92
2021/10/13 02:14:16;;;;;;;2.60;2.40;;;8.20;99.90;;;;;;5071834;28;20226;-92
2021/10/13 02:16:48;;;;;;;2.33;2.20;;;8.20;99.90;;;;;;5060066;28;20765;-90
2021/10/13 02:19:19;;;;;;;2.60;2.40;;;8.20;99.90;;;;;;5060655;28;21235;-88
2021/10/13 02:21:49;;;;;;;2.60;2.50;;;8.20;99.90;;;;;;5065520;28;20241;-93
2021/10/13 02:24:22;;;;;;;2.55;2.45;;;8.20;99.90;;;;;;5077978;28;20230;-92
2021/10/13 02:26:53;;;;;;;2.78;2.58;;;8.20;99.90;;;;;;5077308;28;20221;-91
2021/10/13 02:29:21;;;;;;;2.33;2.22;;;8.20;99.90;;;;;;5034642;28;20222;-93
2021/10/13 02:31:48;;;;;;;2.35;2.25;;;8.30;99.90;;;;;;5072000;28;20218;-92
2021/10/13 02:34:17;;;;;;;2.50;2.40;;;8.30;99.90;;;;;;5062326;28;20251;-92
2021/10/13 02:36:44;;;;;;;2.45;2.25;;;8.30;99.90;;;;;;5064191;28;20237;-91
2021/10/13 02:39:11;;;;;;;2.70;2.50;;;8.30;99.90;;;;;;5053480;28;20275;-87
2021/10/13 02:41:39;;;;;;;2.50;2.30;;;8.30;99.90;;;;;;5068559;28;20222;-91
2021/10/13 02:44:07;;;;;;;2.67;2.47;;;8.30;99.90;;;;;;5069411;28;20225;-89
2021/10/13 02:46:38;;;;;;;3.35;3.05;;;8.30;99.90;;;;;;5072486;28;20278;-89
2021/10/13 02:49:12;;;;;;;2.60;2.40;;;8.20;99.90;;;;;;5068889;28;20225;-92
2021/10/13 02:51:46;;;;;;;2.65;2.45;;;8.10;99.90;;;;;;5074045;28;20218;-91
2021/10/13 02:54:18;;;;;;;2.35;2.25;;;8.10;99.90;;;;;;5073235;28;20214;-91
2021/10/13 02:56:48;;;;;;;2.55;2.42;;;8.10;99.90;;;;;;5073490;28;20764;-90
2021/10/13 02:59:22;;;;;;;2.60;2.40;;;8.10;99.90;;;;;;5075725;28;21783;-91
2021/10/13 03:01:52;;;;;;;2.53;2.33;;;8.20;99.90;;;;;;5074244;28;20267;-91
2021/10/13 03:04:25;;;;;;;2.55;2.40;;;8.20;99.90;;;;;;5074666;28;20225;-93
2021/10/13 03:06:58;;;;;;;2.28;2.17;;;8.20;99.90;;;;;;5073504;28;20549;-91
2021/10/13 03:09:29;;;;;;;2.10;2.00;;;8.20;99.90;;;;;;5077150;28;20225;-90
2021/10/13 03:11:59;;;;;;;2.13;2.03;;;8.20;99.90;;;;;;5073474;28;20239;-91
2021/10/13 03:14:29;;;;;;;2.70;2.50;;;8.20;99.90;;;;;;5078349;28;20238;-90
2021/10/13 03:16:56;;;;;;;2.53;2.35;;;8.10;99.90;;;;;;5072432;28;20234;-91
2021/10/13 03:19:26;;;;;;;2.58;2.38;;;8.10;99.90;;;;;;5076516;28;20217;-92
2021/10/13 03:21:56;;;;;;;2.53;2.33;;;8.10;99.90;;;;;;5071519;28;20295;-93
2021/10/13 03:24:23;;;;;;;2.58;2.20;;;8.10;99.90;;;;;;5071695;28;20230;-91
2021/10/13 03:26:51;;;;;;;2.40;2.20;;;8.00;99.90;;;;;;5050974;28;20258;-90
2021/10/13 03:29:19;;;;;;;3.03;2.40;;;8.10;99.90;;;;;;5079886;28;20287;-90
2021/10/13 03:31:46;;;;;;;2.22;2.13;;;8.00;99.90;;;;;;5068905;28;20704;-90
2021/10/13 03:34:15;;;;;;;2.53;2.42;;;8.00;99.90;;;;;;5070201;28;20246;-91
2021/10/13 03:36:44;;;;;;;2.75;2.55;;;8.00;99.90;;;;;;5073596;28;20695;-91
2021/10/13 03:39:14;;;;;;;2.58;2.38;;;7.90;99.90;;;;;;5072607;28;20229;-92
2021/10/13 03:41:41;;;;;;;2.55;2.35;;;7.90;99.90;;;;;;5071730;28;20233;-91
2021/10/13 03:44:09;;;;;;;2.50;2.30;;;7.90;99.90;;;;;;5080054;28;20286;-91
2021/10/13 03:46:37;;;;;;;2.38;2.20;;;8.00;99.90;;;;;;5071984;28;20222;-91
2021/10/13 03:49:05;;;;;;;2.40;2.30;;;8.00;99.90;;;;;;5070342;28;20700;-93
2021/10/13 03:51:33;;;;;;;2.40;2.30;;;8.00;99.90;;;;;;5047726;28;20607;-93
2021/10/13 03:54:00;;;;;;;2.33;2.22;;;8.10;99.90;;;;;;5078605;28;20226;-92
2021/10/13 03:56:30;;;;;;;3.00;2.30;;;8.00;99.90;;;;;;5073890;28;20222;-91
2021/10/13 03:58:58;;;;;;;2.03;1.92;;;8.00;99.90;;;;;;5074949;28;20278;-91
2021/10/13 04:01:25;;;;;;;2.17;2.08;;;8.10;99.90;;;;;;5077267;28;20640;-90
2021/10/13 04:03:52;;;;;;;2.35;2.25;;;8.00;99.90;;;;;;5070802;28;20218;-90
2021/10/13 04:06:19;;;;;;;2.63;2.50;;;8.10;99.90;;;;;;5077809;28;20217;-89
2021/10/13 04:08:46;;;;;;;2.30;2.20;;;8.10;99.90;;;;;;5071654;28;20719;-90
2021/10/13 04:11:13;;;;;;;2.30;2.20;;;8.20;99.90;;;;;;5069369;28;20221;-90
2021/10/13 04:13:44;;;;;;;2.25;2.15;;;8.20;99.90;;;;;;5053136;28;20221;-91
2021/10/13 04:16:11;;;;;;;2.47;2.20;;;8.20;99.90;;;;;;5044035;28;20222;-88
2021/10/13 04:18:38;;;;;;;1.70;1.60;;;8.20;99.90;;;;;;5050752;28;20264;-90
2021/10/13 04:21:05;;;;;;;2.30;2.10;;;8.20;99.90;;;;;;5038022;28;20275;-90
2021/10/13 04:23:32;;;;;;;1.73;1.63;;;8.10;99.90;;;;;;5066317;28;20222;-88
2021/10/13 04:25:59;;;;;;;1.92;1.83;;;8.10;99.90;;;;;;5068099;28;20225;-90
2021/10/13 04:28:26;;;;;;;2.00;1.90;;;8.10;99.90;;;;;;5068902;28;20230;-89
2021/10/13 04:30:55;;;;;;;2.00;1.90;;;8.20;99.90;;;;;;5071772;28;20299;-91
2021/10/13 04:33:22;;;;;;;2.20;2.10;;;8.10;99.90;;;;;;5070315;28;20230;-91
2021/10/13 04:35:49;;;;;;;2.03;1.92;;;8.10;99.90;;;;;;5074319;28;20757;-89
2021/10/13 04:38:16;;;;;;;2.25;2.15;;;8.10;99.90;;;;;;5075431;28;20291;-89
2021/10/13 04:40:43;;;;;;;2.13;2.03;;;8.10;99.90;;;;;;5066833;28;20225;-89
2021/10/13 04:43:10;;;;;;;2.00;1.90;;;8.10;99.90;;;;;;5069014;28;20213;-90
2021/10/13 04:45:37;;;;;;;2.38;2.28;;;8.00;99.90;;;;;;5069558;28;20214;-87
2021/10/13 04:48:06;;;;;;;2.03;1.92;;;8.00;99.90;;;;;;5069754;28;20247;-87
2021/10/13 04:50:33;;;;;;;1.85;1.75;;;7.90;99.90;;;;;;5069857;28;20225;-88
2021/10/13 04:53:00;;;;;;;2.22;2.13;;;7.80;99.90;;;;;;5067885;28;20253;-89
2021/10/13 04:55:27;;;;;;;2.03;1.92;;;7.80;99.90;;;;;;5070083;28;20222;-89
2021/10/13 04:57:54;;;;;;;1.85;1.75;;;7.90;99.90;;;;;;5073541;28;20225;-91
2021/10/13 05:00:21;;;;;;;2.10;2.00;;;7.80;99.90;;;;;;5072743;28;20744;-91
2021/10/13 05:02:49;;;;;;;2.17;2.08;;;7.90;99.90;;;;;;5071078;28;20236;-87
2021/10/13 05:05:17;;;;;;;2.00;1.90;;;7.90;99.90;;;;;;5078203;28;20720;-90
2021/10/13 05:07:45;;;;;;;1.83;1.73;;;7.80;99.90;;;;;;5073706;28;20263;-91
2021/10/13 05:10:12;;;;;;;2.08;1.88;;;7.80;99.90;;;;;;5067070;28;20617;-91
2021/10/13 05:12:39;;;;;;;1.90;1.80;;;7.80;99.90;;;;;;5072873;28;20230;-87
2021/10/13 05:15:06;;;;;;;1.92;1.83;;;7.80;99.90;;;;;;5071497;28;20214;-91
2021/10/13 05:17:34;;;;;;;1.83;1.73;;;7.80;99.90;;;;;;5067258;28;20243;-90
2021/10/13 05:20:02;;;;;;;1.50;1.40;;;7.80;99.90;;;;;;5072470;28;20243;-89
2021/10/13 05:22:30;;;;;;;2.08;1.98;;;7.80;99.90;;;;;;5061418;28;20233;-90
2021/10/13 05:24:58;;;;;;;1.98;1.88;;;7.90;99.90;;;;;;5062297;28;20267;-89
2021/10/13 05:27:25;;;;;;;1.90;1.80;;;7.90;99.90;;;;;;5051265;28;20222;-86
2021/10/13 05:29:52;;;;;;;2.03;1.92;;;7.90;99.90;;;;;;5053520;28;20237;-91
2021/10/13 05:32:19;;;;;;;1.80;1.70;;;7.80;99.90;;;;;;5058161;28;20223;-91
2021/10/13 05:34:46;;;;;;;1.50;1.40;;;7.80;99.90;;;;;;5048089;28;20238;-87
2021/10/13 05:37:13;;;;;;;1.90;1.80;;;7.80;99.90;;;;;;5064235;28;20231;-91
2021/10/13 05:39:42;;;;;;;2.20;2.10;;;7.80;99.90;;;;;;5051166;28;20218;-91
2021/10/13 05:42:09;;;;;;;2.13;2.03;;;7.80;99.90;;;;;;5057235;28;20324;-89
2021/10/13 05:44:36;;;;;;;1.85;1.75;;;7.80;99.90;;;;;;5060810;28;20272;-89
2021/10/13 05:47:03;;;;;;;1.70;1.60;;;7.80;99.90;;;;;;5056885;28;20218;-92
2021/10/13 05:49:30;;;;;;;2.15;2.05;;;7.80;99.90;;;;;;5073579;28;20221;-91
2021/10/13 05:51:57;;;;;;;2.13;2.03;;;7.80;99.90;;;;;;5072113;28;20626;-91
2021/10/13 05:54:25;;;;;;;2.30;2.10;;;7.70;99.90;;;;;;5073280;28;20229;-88
2021/10/13 05:56:53;;;;;;;2.25;2.15;;;7.70;99.90;;;;;;5072527;28;20593;-91
2021/10/13 05:59:20;;;;;;;2.10;2.00;;;7.70;99.90;;;;;;5072734;28;20225;-91
2021/10/13 06:01:47;;;;;;;2.10;2.00;;;7.70;99.90;;;;;;5079757;28;20688;-91
2021/10/13 06:04:14;;;;;;;2.10;2.00;;;7.60;99.90;;;;;;5071089;28;20221;-92
2021/10/13 06:06:41;;;;;;;2.40;2.30;;;7.70;99.90;;;;;;5072399;28;20213;-89
2021/10/13 06:09:08;;;;;;;1.83;1.73;;;7.70;99.90;;;;;;5074273;28;20221;-89
2021/10/13 06:11:35;;;;;;;2.20;2.10;;;7.70;99.90;;;;;;5075779;28;20945;-90
2021/10/13 06:14:04;;;;;;;2.95;2.30;;;7.70;99.90;;;;;;5074963;28;20742;-91
2021/10/13 06:16:31;;;;;;;2.10;2.00;;;7.70;99.90;;;;;;5073200;28;20221;-89
2021/10/13 06:18:58;;;;;;;1.90;1.80;;;7.70;99.90;;;;;;5075662;28;20226;-91
2021/10/13 06:21:26;;;;;;;2.08;1.98;;;7.80;99.90;;;;;;5071165;28;20310;-87
2021/10/13 06:23:53;;;;;;;1.90;1.80;;;7.80;99.90;;;;;;5059103;28;20482;-92
2021/10/13 06:26:22;;;;;;;2.20;1.67;;;7.80;99.90;;;;;;5064268;28;20291;-90
2021/10/13 06:28:50;;;;;;;2.10;2.00;;;7.80;99.90;;;;;;5063487;28;20317;-90
2021/10/13 06:31:23;;;;;;;2.03;1.92;;;7.80;99.90;;;;;;5065923;28;20226;-93
2021/10/13 06:33:50;;;;;;;1.67;1.58;;;7.80;99.90;;;;;;5062518;28;20303;-88
2021/10/13 06:36:19;;;;;;;2.20;2.10;;;7.80;99.90;;;;;;5066680;28;20316;-91
2021/10/13 06:38:46;;;;;;;1.90;1.80;;;7.80;99.90;;;;;;5062675;28;20230;-87
2021/10/13 06:41:14;;;;;;;1.90;1.80;;;7.90;99.90;;;;;;5064265;28;20226;-89
2021/10/13 06:43:42;;;;;;;2.00;1.90;;;7.90;99.90;;;;;;5068079;28;20287;-90
2021/10/13 06:46:10;;;;;;;1.90;1.80;;;7.90;99.90;;;;;;5083967;28;20209;-90
2021/10/13 06:48:38;;;;;;;2.20;2.10;;;8.00;99.90;;;;;;5067774;28;20218;-91
2021/10/13 06:51:05;;;;;;;2.33;2.13;;;8.70;99.90;;;;;;5067656;28;20218;-91
2021/10/13 06:53:33;;;;;;;2.30;2.10;;;9.70;99.90;;;;;;5065087;28;20226;-90
2021/10/13 06:56:01;;;;;;;2.40;2.30;;;10.70;99.90;;;;;;5069312;28;20275;-90
2021/10/13 06:58:28;;;;;;;2.10;2.00;;;11.60;99.90;;;;;;5063205;28;20304;-89
2021/10/13 07:00:56;;;;;;;2.67;2.47;;;12.30;99.90;;;;;;5064810;28;20241;-90
2021/10/13 07:03:23;;;;;;;2.45;2.30;;;12.90;99.90;;;;;;5067173;28;20225;-91
2021/10/13 07:05:51;;;;;;;2.25;2.15;;;13.30;99.90;;;;;;5065500;28;20255;-90
2021/10/13 07:08:18;;;;;;;2.67;2.47;;;13.70;99.90;;;;;;5061790;28;20249;-91
2021/10/13 07:10:45;;;;;;;3.10;2.45;;;14.00;99.90;;;;;;5063637;28;20875;-89
2021/10/13 07:13:12;;;;;;;2.50;2.30;;;14.30;99.90;;;;;;5065305;28;20279;-90
2021/10/13 07:15:39;;;;;;;2.60;2.40;;;14.60;99.90;;;;;;5066359;28;20279;-90
2021/10/13 07:18:07;;;;;;;2.55;2.10;;;14.70;99.90;;;;;;5059519;28;20230;-87
2021/10/13 07:20:34;;;;;;;2.90;2.70;;;14.90;99.90;;;;;;5064685;28;20727;-91
2021/10/13 07:23:05;;;;;;;2.15;2.05;;;14.90;99.90;;;;;;5061102;28;20222;-91
2021/10/13 07:25:32;;;;;;;2.38;2.20;;;14.80;99.90;;;;;;5067040;28;20233;-90
2021/10/13 07:28:01;;;;;;;2.33;2.13;;;14.80;99.90;;;;;;5066615;28;20229;-88
2021/10/13 07:30:30;;;;;;;2.50;2.30;;;14.80;99.90;;;;;;5066068;28;20242;-87
2021/10/13 07:32:57;;;;;;;2.67;2.20;;;14.70;99.90;;;;;;5055506;28;20717;-89
2021/10/13 07:35:27;;;;;;;2.30;2.20;;;14.70;99.90;;;;;;5063251;28;20247;-87
2021/10/13 07:37:56;;;;;;;2.50;2.30;;;15.00;99.90;;;;;;5066338;28;20230;-87
2021/10/13 07:40:25;;;;;;;2.70;2.50;;;15.40;99.90;;;;;;5061294;28;20222;-88
2021/10/13 07:42:53;;;;;;;2.63;2.28;;;15.60;99.90;;;;;;5061568;28;20280;-87
2021/10/13 07:45:21;;;;;;;2.25;2.15;;;15.80;99.90;;;;;;5060000;28;20233;-87
2021/10/13 07:47:48;;;;;;;2.25;2.03;;;15.90;99.90;;;;;;5065204;28;20238;-86
2021/10/13 07:50:16;;;;;;;2.53;2.33;;;15.90;99.90;;;;;;5059510;28;20230;-88
2021/10/13 07:52:43;;;;;;;2.20;2.00;;;16.20;99.90;;;;;;5060955;28;20245;-89
2021/10/13 07:55:11;;;;;;;2.78;2.15;;;16.40;99.90;;;;;;5063081;28;20280;-90
2021/10/13 07:57:40;;;;;;;2.30;2.10;;;16.60;99.90;;;;;;5067961;28;20229;-86
2021/10/13 08:00:09;;;;;;;2.42;2.22;;;16.70;99.90;;;;;;5068700;28;20275;-90
2021/10/13 08:02:36;;;;;;;2.10;1.95;;;16.50;99.90;;;;;;5060328;28;20226;-88
2021/10/13 08:05:03;;;;;;;3.40;2.42;;;16.20;99.90;;;;;;5064301;28;20225;-90
2021/10/13 08:07:31;;;;;;;2.80;2.60;;;16.30;99.90;;;;;;5060204;28;20230;-88
2021/10/13 08:09:58;;;;;;;2.35;2.15;;;16.20;99.90;;;;;;5068786;28;20229;-89
2021/10/13 08:12:25;;;;;;;2.90;2.35;;;16.50;99.90;;;;;;5067980;28;20793;-87
2021/10/13 08:14:54;;;;;;;2.42;2.10;;;16.90;99.90;;;;;;5068834;28;20372;-86
2021/10/13 08:17:21;;;;;;;2.20;2.00;;;16.90;99.90;;;;;;5060966;28;20773;-88
2021/10/13 08:19:48;;;;;;;3.05;2.85;;;17.10;99.90;;;;;;5062075;28;20233;-88
2021/10/13 08:22:15;;;;;;;2.63;2.42;;;17.00;99.90;;;;;;5059241;28;20238;-87
2021/10/13 08:24:42;;;;;;;3.35;2.50;;;17.10;99.90;;;;;;5059953;28;20222;-88
2021/10/13 08:27:09;;;;;;;3.25;2.38;;;17.20;99.90;;;;;;5057587;28;20229;-87
2021/10/13 08:29:36;;;;;;;3.58;2.47;;;17.50;99.90;;;;;;5063759;28;20261;-89
2021/10/13 08:32:06;;;;;;;2.42;2.22;;;17.50;99.90;;;;;;5063659;28;20225;-88
2021/10/13 08:34:33;;;;;;;2.40;2.20;;;17.70;99.90;;;;;;5057341;28;20783;-89
2021/10/13 08:37:00;;;;;;;2.92;2.10;;;17.80;99.90;;;;;;5064036;28;20242;-89
2021/10/13 08:39:27;;;;;;;2.13;1.92;;;17.60;99.90;;;;;;5060730;28;20225;-89
2021/10/13 08:41:54;;;;;;;3.35;2.40;;;17.70;99.90;;;;;;5063568;28;20241;-88
2021/10/13 08:44:21;;;;;;;2.28;2.03;;;17.50;99.90;;;;;;5037217;28;20233;-91
2021/10/13 08:46:48;;;;;;;2.90;2.40;;;17.30;99.90;;;;;;5059361;28;20222;-85
2021/10/13 08:49:17;;;;;;;2.60;2.40;;;17.40;99.90;;;;;;5060209;28;20898;-89
2021/10/13 08:51:44;;;;;;;3.28;2.50;;;17.80;99.90;;;;;;5064395;28;20226;-84
2021/10/13 08:54:17;;;;;;;2.20;2.00;;;18.30;99.90;;;;;;5069570;28;20224;-88
2021/10/13 08:56:44;;;;;;;3.00;2.38;;;18.60;99.90;;;;;;5072447;28;20218;-88
2021/10/13 08:59:31;;;;;;;2.25;2.05;;;19.00;99.90;;;;;;5064940;28;20278;-88
2021/10/13 09:01:58;;;;;;;1.92;1.80;;;19.30;99.90;;;;;;5062324;28;20223;-89
2021/10/13 09:04:27;;;;;;;3.03;2.33;;;19.50;99.90;;;;;;5068187;28;20245;-85
2021/10/13 09:07:02;;;;;;;2.67;2.00;;;19.70;99.90;;;;;;5039016;28;20237;-91
2021/10/13 09:09:30;;;;;;;4.78;2.00;;;19.20;99.90;;;;;;5066212;28;20312;-87
2021/10/13 09:11:58;;;;;;;1.65;1.55;;;19.00;99.90;;;;;;5061002;28;20229;-89
2021/10/13 09:14:26;;;;;;;1.75;1.65;;;19.00;99.90;;;;;;5067229;28;20699;-89
2021/10/13 09:17:00;;;;;;;1.65;1.52;;;19.20;99.90;;;;;;5063332;28;20225;-89
2021/10/13 09:19:31;;;;;;;1.80;1.70;;;19.20;99.90;;;;;;5063243;28;20222;-87
2021/10/13 09:21:59;;;;;;;1.58;1.48;;;19.20;99.90;;;;;;5063993;28;20217;-89
2021/10/13 09:24:28;;;;;;;1.83;1.70;;;19.20;99.90;;;;;;5060327;28;20240;-89
2021/10/13 09:26:57;;;;;;;1.55;1.45;;;19.20;99.90;;;;;;5061521;28;20294;-89
2021/10/13 09:29:25;;;;;;;1.80;1.40;;;19.30;99.90;;;;;;5061392;28;20617;-89
2021/10/13 09:32:02;;;;;;;2.15;1.48;;;19.40;99.90;;;;;;5062302;28;20225;-88
2021/10/13 09:34:31;;;;;;;1.40;1.30;;;19.40;99.90;;;;;;5070094;28;20229;-88
2021/10/13 09:37:01;;;;;;;2.22;1.30;;;19.30;99.90;;;;;;5066872;28;20221;-85
2021/10/13 09:39:31;;;;;;;1.73;1.30;;;19.20;99.90;;;;;;5079175;28;20303;-90
2021/10/13 09:42:05;;;;;;;2.00;1.60;;;19.30;99.90;;;;;;5073250;28;20221;-89
2021/10/13 09:44:35;;;;;;;1.83;1.40;;;19.40;99.90;;;;;;5066887;28;20272;-89
2021/10/13 09:47:04;;;;;;;1.50;1.40;;;19.60;99.90;;;;;;5069976;28;20221;-87
2021/10/13 09:49:38;;;;;;;1.40;1.30;;;19.50;99.90;;;;;;5079238;28;20271;-86
2021/10/13 09:52:08;;;;;;;1.45;1.35;;;19.60;99.90;;;;;;5075250;28;20218;-86
2021/10/13 09:54:36;;;;;;;1.20;1.10;;;19.60;99.90;;;;;;5053774;28;20380;-87
2021/10/13 09:57:17;;;;;;;1.83;1.23;;;19.40;99.90;;;;;;5076524;28;20273;-82
2021/10/13 10:00:03;;;;;;;1.63;1.48;;;19.50;99.90;;;;;;5080269;28;20241;-90
2021/10/13 10:02:33;;;;;;;2.22;1.30;;;19.20;99.90;;;;;;5068366;28;20221;-88
2021/10/13 10:05:15;;;;;;;1.67;1.33;;;18.90;99.90;;;;;;5068698;28;20218;-90
2021/10/13 10:07:45;;;;;;;1.40;1.30;;;18.80;99.90;;;;;;5066232;28;20221;-84
2021/10/13 10:10:18;;;;;;;1.98;1.35;;;18.90;99.90;;;;;;5062528;28;20222;-84
2021/10/13 10:13:05;;;;;;;2.28;1.27;;;19.30;99.90;;;;;;5071183;28;20230;-89
2021/10/13 10:15:35;;;;;;;1.67;1.40;;;19.60;99.90;;;;;;5081745;28;20252;-90
2021/10/13 10:18:03;;;;;;;1.33;1.15;;;19.50;99.90;;;;;;5072117;28;20221;-87
2021/10/13 10:20:36;;;;;;;1.42;1.33;;;19.30;99.90;;;;;;5076889;28;20232;-89
2021/10/13 10:23:34;;;;;;;2.15;1.30;;;19.50;99.90;;;;;;5089126;28;20214;-88
2021/10/13 10:26:23;;;;;;;1.02;1.02;;;19.50;99.90;;;;;;5078792;28;20217;-89
2021/10/13 10:28:54;;;;;;;2.30;1.50;;;19.60;99.90;;;;;;5063011;28;20333;-87
2021/10/13 10:31:45;;;;;;;1.33;1.23;;;19.40;99.90;;;;;;5080324;23;20476;-90
2021/10/13 10:34:20;;;;;;;2.60;1.60;;;19.40;99.90;;;;;;5079996;28;20206;-88
2021/10/13 10:37:14;;;;;;;1.52;1.40;;;19.40;99.90;;;;;;5076248;28;20229;-87
2021/10/13 10:40:04;;;;;;;1.40;1.30;;;19.70;99.90;;;;;;5073761;28;20229;-86
2021/10/13 10:43:02;;;;;;;3.60;2.55;;;19.60;99.90;;;;;;5065002;28;20203;-84
2021/10/13 10:45:38;;;;;;;1.40;1.30;;;19.70;99.90;;;;;;5040493;28;20237;-90
2021/10/13 10:48:09;;;;;;;3.22;1.90;;;19.80;99.90;;;;;;5096592;22;20520;-73
2021/10/13 10:50:39;;;;;;;2.38;1.77;;;19.80;99.40;;;;;;5028123;28;20280;-73
2021/10/13 10:53:19;;;;;;;1.13;1.02;;;19.70;99.90;;;;;;5028424;28;20270;-72
2021/10/13 10:55:48;;;;;;;1.20;1.00;;;19.80;95.80;;;;;;5036562;28;20239;-72
2021/10/13 10:58:22;;;;;;;0.98;0.98;;;19.70;97.60;;;;;;5016312;28;20240;-72
2021/10/13 11:01:04;;;;;;;1.17;0.98;;;19.80;96.80;;;;;;5029534;28;20714;-73
2021/10/13 11:03:36;;;;;;;0.90;0.90;;;19.90;98.10;;;;;;5022487;28;20959;-72
2021/10/13 11:06:19;;;;;;;0.82;0.82;;;20.20;97.90;;;;;;5023390;28;20249;-70
2021/10/13 11:08:59;;;;;;;1.02;1.00;;;20.30;98.80;;;;;;5018465;28;20230;-71
2021/10/13 11:11:29;;;;;;;2.50;0.93;;;20.50;96.50;;;;;;5032505;28;20301;-70
2021/10/13 11:14:05;;;;;;;6.03;1.00;;;20.60;96.20;;;;;;5033726;28;20697;-72
2021/10/13 11:16:33;;;;;;;1.20;1.10;;;20.70;95.40;;;;;;5019821;28;20300;-73
2021/10/13 11:19:15;;;;;;;1.15;1.05;;;21.10;94.80;;;;;;5026970;28;20250;-72
2021/10/13 11:21:44;;;;;;;0.80;0.80;;;21.20;92.60;;;;;;5030946;28;20287;-74
2021/10/13 11:24:16;;;;;;;1.92;0.95;;;21.30;94.40;;;;;;5020913;28;20257;-73
2021/10/13 11:26:44;;;;;;;0.60;0.60;;;21.50;92.90;;;;;;5038109;28;20249;-73
2021/10/13 11:29:24;;;;;;;2.50;1.10;;;21.70;93.30;;;;;;5029086;28;20737;-73
2021/10/13 11:32:02;;;;;;;1.10;1.10;;;21.70;91.90;;;;;;5022443;28;20778;-73
2021/10/13 11:34:29;;;;;;;1.33;1.23;;;21.80;92.60;;;;;;5024576;28;20231;-73
2021/10/13 11:36:57;;;;;;;1.15;0.70;;;21.80;91.00;;;;;;5012047;28;20219;-74
2021/10/13 11:39:29;;;;;;;0.70;0.70;;;21.70;86.50;;;;;;5031945;28;20230;-75
2021/10/13 11:41:57;;;;;;;0.75;0.70;;;21.30;82.60;;;;;;5037875;28;20230;-74
2021/10/13 11:44:25;;;;;;;1.10;0.70;;;20.90;87.80;;;;;;5015094;28;20230;-73
2021/10/13 11:47:01;;;;;;;0.82;0.75;;;20.90;89.50;;;;;;5035688;28;20242;-73
2021/10/13 11:49:28;;;;;;;0.60;0.60;;;20.80;86.90;;;;;;5016639;28;20235;-72
2021/10/13 11:52:10;;;;;;;1.20;0.73;;;20.70;87.00;;;;;;5020820;28;20284;-72
2021/10/13 11:54:40;;;;;;;0.60;0.60;;;20.50;81.80;;;;;;5017861;28;20677;-72
2021/10/13 11:57:08;;;;;;;0.80;0.80;;;20.50;84.10;;;;;;5031217;28;20241;-72
2021/10/13 11:59:37;;;;;;;0.80;0.80;;;20.50;83.30;;;;;;5025188;28;20226;-73
2021/10/13 12:02:19;;;;;;;0.60;0.60;;;20.30;77.70;;;;;;5023763;28;20325;-71
2021/10/13 12:04:51;;;;;;;0.52;0.52;;;19.90;77.10;;;;;;5022046;28;20231;-72
2021/10/13 12:07:24;;;;;;;0.60;0.60;;;19.80;80.10;;;;;;5008550;28;20231;-71
2021/10/13 12:09:59;;;;;;;0.60;0.60;;;20.00;83.70;;;;;;5019637;28;20273;-71
2021/10/13 12:12:28;;;;;;;0.80;0.80;;;20.30;87.20;;;;;;5024838;28;20476;-72
2021/10/13 12:14:55;;;;;;;0.80;0.80;;;20.50;86.10;;;;;;5009744;28;20656;-71
2021/10/13 12:17:27;;;;;;;0.63;0.63;;;20.50;84.70;;;;;;5019351;28;20230;-71
2021/10/13 12:19:54;;;;;;;0.88;0.82;;;20.60;82.40;;;;;;5016157;28;20226;-72
2021/10/13 12:22:22;;;;;;;0.70;0.70;;;20.50;80.50;;;;;;5004143;28;20274;-74
2021/10/13 12:24:49;;;;;;;0.70;0.70;;;20.20;76.70;;;;;;5019853;28;20242;-72
2021/10/13 12:27:29;;;;;;;0.93;0.85;;;20.00;80.80;;;;;;5035050;28;20283;-72
2021/10/13 12:29:56;;;;;;;1.20;1.10;;;20.10;81.80;;;;;;5023154;28;20542;-71
2021/10/13 12:32:25;;;;;;;1.38;1.00;;;20.00;79.40;;;;;;5010783;28;20234;-73
2021/10/13 12:34:53;;;;;;;1.23;1.10;;;19.90;81.40;;;;;;5029304;28;20234;-72
2021/10/13 12:37:24;;;;;;;1.52;1.20;;;19.90;80.50;;;;;;5025092;28;20226;-71
2021/10/13 12:39:51;;;;;;;0.90;0.90;;;20.00;81.60;;;;;;5028524;28;20306;-72
2021/10/13 12:42:18;;;;;;;1.30;1.08;;;20.20;82.80;;;;;;5008486;28;20235;-72
2021/10/13 12:44:47;;;;;;;1.13;0.80;;;20.30;82.50;;;;;;5022598;28;20226;-72
2021/10/13 12:47:16;;;;;;;0.60;0.60;;;20.40;85.40;;;;;;5019723;28;20674;-72
2021/10/13 12:49:45;;;;;;;0.70;0.70;;;20.30;84.50;;;;;;5022137;28;20235;-72
2021/10/13 12:52:14;;;;;;;0.70;0.70;;;20.30;84.10;;;;;;5014462;28;20260;-73
2021/10/13 12:54:42;;;;;;;0.77;0.77;;;20.30;83.50;;;;;;5012420;28;20318;-72
2021/10/13 12:57:11;;;;;;;1.10;1.00;;;20.40;85.10;;;;;;5025888;28;20227;-72
2021/10/13 12:59:39;;;;;;;0.88;0.88;;;20.50;79.00;;;;;;5030466;28;20495;-72
2021/10/13 13:02:08;;;;;;;0.90;0.73;;;20.20;82.00;;;;;;5021896;28;20300;-72
2021/10/13 13:04:36;;;;;;;0.75;0.75;;;20.10;83.10;;;;;;5022152;28;20227;-71
2021/10/13 13:07:06;;;;;;;1.52;0.82;;;19.90;81.30;;;;;;5006508;28;20449;-71